Time;durP1;ratioP1;P1;durP2;ratioP2;P2;SDS_P1;SDS_P2;PMS_P1;PMS_P2;Temp;Humidity;BMP_temperature;BMP_pressure;BME280_temperature;BME280_humidity;BME280_pressure;Samples;Min_cycle;Max_cycle;Signal;HPM_P1;HPM_P2
2021/11/18 00:01:00;;;;;;;28.97;23.90;;;;;22.70;101481.00;;;;2052458;28;20213;-66
2021/11/18 00:02:02;;;;;;;26.37;23.10;;;;;22.60;101500.00;;;;2051857;28;20263;-67
2021/11/18 00:03:03;;;;;;;27.77;21.95;;;;;22.70;101488.00;;;;2049825;28;20226;-66
2021/11/18 00:04:03;;;;;;;28.20;21.60;;;;;22.60;101497.00;;;;2054391;28;20207;-66
2021/11/18 00:05:04;;;;;;;26.73;21.60;;;;;22.60;101494.00;;;;2053777;28;20208;-66
2021/11/18 00:06:05;;;;;;;27.50;20.70;;;;;22.60;101499.00;;;;2053401;28;20212;-66
2021/11/18 00:07:05;;;;;;;23.77;20.63;;;;;22.60;101495.00;;;;2051738;28;20365;-66
2021/11/18 00:08:06;;;;;;;24.27;19.97;;;;;22.60;101490.00;;;;2051790;28;20224;-66
2021/11/18 00:09:09;;;;;;;23.77;19.20;;;;;22.60;101479.00;;;;2051611;28;20223;-67
2021/11/18 00:10:10;;;;;;;26.17;19.48;;;;;22.60;101491.00;;;;2051453;28;20219;-67
2021/11/18 00:11:11;;;;;;;23.98;18.90;;;;;22.70;101492.00;;;;2051550;28;20222;-66
2021/11/18 00:12:11;;;;;;;22.50;18.57;;;;;22.60;101495.00;;;;2051578;28;20212;-65
2021/11/18 00:13:14;;;;;;;21.53;18.87;;;;;22.60;101486.00;;;;2051799;28;20475;-66
2021/11/18 00:14:15;;;;;;;20.52;17.17;;;;;22.60;101496.00;;;;2050987;28;20212;-66
2021/11/18 00:15:15;;;;;;;21.53;18.20;;;;;22.60;101496.00;;;;2051313;28;20220;-66
2021/11/18 00:16:16;;;;;;;21.67;18.00;;;;;22.60;101496.00;;;;2052203;28;20235;-67
2021/11/18 00:17:16;;;;;;;22.23;18.47;;;;;22.60;101489.00;;;;2052336;28;20530;-66
2021/11/18 00:18:22;;;;;;;21.00;17.10;;;;;22.50;101491.00;;;;2043646;29;20960;-66
2021/11/18 00:19:22;;;;;;;23.25;18.05;;;;;22.60;101487.00;;;;2043897;29;20216;-67
2021/11/18 00:20:22;;;;;;;19.90;17.63;;;;;22.60;101489.00;;;;2051932;28;20652;-67
2021/11/18 00:21:25;;;;;;;19.00;16.83;;;;;22.60;101484.00;;;;2051651;28;20227;-67
2021/11/18 00:22:25;;;;;;;21.38;16.65;;;;;22.50;101484.00;;;;2051969;28;20221;-67
2021/11/18 00:23:28;;;;;;;19.50;16.50;;;;;22.50;101482.00;;;;2051833;28;20212;-67
2021/11/18 00:24:29;;;;;;;20.55;16.80;;;;;22.60;101482.00;;;;2050421;28;20224;-67
2021/11/18 00:25:29;;;;;;;24.83;17.50;;;;;22.50;101482.00;;;;2052152;28;20235;-67
2021/11/18 00:26:30;;;;;;;21.80;16.00;;;;;22.50;101478.00;;;;2052059;28;20287;-67
2021/11/18 00:27:30;;;;;;;21.43;17.27;;;;;22.50;101477.00;;;;2051461;28;20724;-67
2021/11/18 00:28:31;;;;;;;18.30;14.73;;;;;22.50;101478.00;;;;2052284;28;20454;-67
2021/11/18 00:29:31;;;;;;;20.40;15.80;;;;;22.50;101473.00;;;;2050974;28;20271;-67
2021/11/18 00:30:31;;;;;;;19.30;16.00;;;;;22.50;101476.00;;;;2051707;28;20215;-67
2021/11/18 00:31:34;;;;;;;19.40;15.40;;;;;22.50;101479.00;;;;2051834;28;20216;-67
2021/11/18 00:32:35;;;;;;;18.48;15.35;;;;;22.50;101470.00;;;;2051711;28;20210;-67
2021/11/18 00:33:36;;;;;;;17.58;14.70;;;;;22.50;101483.00;;;;2050489;28;20238;-67
2021/11/18 00:34:36;;;;;;;18.73;14.83;;;;;22.50;101488.00;;;;2053580;28;20212;-67
2021/11/18 00:35:37;;;;;;;17.97;14.70;;;;;22.50;101496.00;;;;2054974;28;20290;-67
2021/11/18 00:36:38;;;;;;;19.92;14.73;;;;;22.50;101500.00;;;;2047235;28;20259;-67
2021/11/18 00:37:38;;;;;;;17.03;14.90;;;;;22.40;101501.00;;;;2051569;28;20247;-67
2021/11/18 00:38:38;;;;;;;18.60;14.07;;;;;22.50;101494.00;;;;2052347;28;20215;-67
2021/11/18 00:39:39;;;;;;;21.20;14.60;;;;;22.50;101495.00;;;;2052222;28;20706;-67
2021/11/18 00:40:42;;;;;;;18.07;14.20;;;;;22.50;101500.00;;;;2052207;28;20214;-67
2021/11/18 00:41:42;;;;;;;16.42;13.20;;;;;22.40;101493.00;;;;2052043;28;20216;-67
2021/11/18 00:42:43;;;;;;;15.80;13.10;;;;;22.40;101494.00;;;;2051738;28;20219;-67
2021/11/18 00:43:43;;;;;;;18.07;13.73;;;;;22.40;101502.00;;;;2050927;28;20653;-67
2021/11/18 00:44:43;;;;;;;14.93;13.00;;;;;22.40;101501.00;;;;2050863;28;20216;-67
2021/11/18 00:45:44;;;;;;;18.77;13.73;;;;;22.40;101502.00;;;;2051590;28;20218;-67
2021/11/18 00:46:44;;;;;;;14.90;12.60;;;;;22.40;101507.00;;;;2051412;28;20216;-67
2021/11/18 00:47:45;;;;;;;16.20;12.77;;;;;22.40;101500.00;;;;2051721;28;20603;-67
2021/11/18 00:48:45;;;;;;;15.57;12.30;;;;;22.30;101495.00;;;;2051639;28;20699;-67
2021/11/18 00:49:45;;;;;;;16.13;13.40;;;;;22.40;101496.00;;;;2051940;28;21081;-67
2021/11/18 00:50:49;;;;;;;15.93;12.30;;;;;22.30;101500.00;;;;2052133;28;20805;-67
2021/11/18 00:51:49;;;;;;;15.27;12.05;;;;;22.30;101497.00;;;;2051233;28;20216;-67
2021/11/18 00:52:50;;;;;;;16.67;12.97;;;;;22.40;101496.00;;;;2043446;29;20278;-67
2021/11/18 00:53:55;;;;;;;15.40;11.53;;;;;22.40;101498.00;;;;2051507;28;25906;-67
2021/11/18 00:54:56;;;;;;;13.65;11.10;;;;;22.30;101499.00;;;;2054099;28;20226;-67
2021/11/18 00:55:57;;;;;;;16.00;12.83;;;;;22.40;101503.00;;;;2051312;28;20721;-67
2021/11/18 00:56:58;;;;;;;14.10;11.50;;;;;22.30;101499.00;;;;2051579;28;20944;-67
2021/11/18 00:57:58;;;;;;;14.80;11.70;;;;;22.30;101501.00;;;;2051625;28;20711;-67
2021/11/18 00:58:59;;;;;;;14.90;11.93;;;;;22.30;101502.00;;;;2050547;28;20240;-67
2021/11/18 00:59:59;;;;;;;15.80;11.73;;;;;22.30;101499.00;;;;2043014;29;20754;-67
2021/11/18 01:00:59;;;;;;;13.60;11.80;;;;;22.30;101498.00;;;;2051395;28;20773;-67
2021/11/18 01:02:00;;;;;;;14.47;11.60;;;;;22.30;101502.00;;;;2051392;28;20644;-67
2021/11/18 01:03:00;;;;;;;14.50;12.10;;;;;22.30;101506.00;;;;2052080;28;20243;-67
2021/11/18 01:04:01;;;;;;;13.67;10.83;;;;;22.30;101505.00;;;;2053200;28;20243;-67
2021/11/18 01:05:01;;;;;;;13.37;10.73;;;;;22.30;101508.00;;;;2055442;28;20211;-67
2021/11/18 01:06:02;;;;;;;12.40;10.77;;;;;22.30;101519.00;;;;2052955;28;20241;-67
2021/11/18 01:07:02;;;;;;;12.83;10.97;;;;;22.30;101520.00;;;;2051763;28;20238;-67
2021/11/18 01:08:03;;;;;;;15.20;11.27;;;;;22.30;101530.00;;;;2050637;28;20745;-67
2021/11/18 01:09:04;;;;;;;12.97;9.93;;;;;22.30;101529.00;;;;2051556;28;20216;-67
2021/11/18 01:10:05;;;;;;;13.48;10.07;;;;;22.30;101529.00;;;;2053611;28;20267;-67
2021/11/18 01:11:11;;;;;;;14.00;9.80;;;;;22.30;101526.00;;;;2051668;28;20353;-67
2021/11/18 01:12:12;;;;;;;12.73;10.65;;;;;22.20;101521.00;;;;2051736;28;20666;-67
2021/11/18 01:13:12;;;;;;;12.93;11.43;;;;;22.30;101529.00;;;;2051348;28;20283;-67
2021/11/18 01:14:15;;;;;;;13.40;11.03;;;;;22.20;101540.00;;;;2051344;28;20196;-67
2021/11/18 01:15:18;;;;;;;13.55;10.15;;;;;22.20;101537.00;;;;2051160;28;20215;-67
2021/11/18 01:16:20;;;;;;;14.98;11.20;;;;;22.20;101538.00;;;;2051468;28;20558;-67
2021/11/18 01:17:20;;;;;;;14.40;10.93;;;;;22.30;101535.00;;;;2051610;28;20579;-67
2021/11/18 01:18:21;;;;;;;13.33;10.10;;;;;22.30;101534.00;;;;2051261;28;20267;-67
2021/11/18 01:19:21;;;;;;;12.10;9.60;;;;;22.20;101539.00;;;;2042519;29;20700;-67
2021/11/18 01:20:23;;;;;;;12.03;9.80;;;;;22.20;101541.00;;;;2051127;28;20216;-67
2021/11/18 01:21:23;;;;;;;13.00;9.65;;;;;22.30;101547.00;;;;2051442;28;20247;-65
2021/11/18 01:22:24;;;;;;;12.00;9.40;;;;;22.20;101547.00;;;;2051337;28;20622;-67
2021/11/18 01:23:27;;;;;;;11.80;10.07;;;;;22.20;101548.00;;;;2051973;28;20231;-67
2021/11/18 01:24:28;;;;;;;11.38;9.52;;;;;22.20;101549.00;;;;2050551;28;20223;-67
2021/11/18 01:25:28;;;;;;;12.80;10.02;;;;;22.20;101551.00;;;;2042855;29;20236;-67
2021/11/18 01:26:29;;;;;;;12.20;9.63;;;;;22.20;101546.00;;;;2050627;28;20215;-67
2021/11/18 01:27:29;;;;;;;14.00;10.43;;;;;22.20;101542.00;;;;2050735;28;20224;-67
2021/11/18 01:28:29;;;;;;;11.73;9.90;;;;;22.20;101543.00;;;;2051326;28;20224;-67
2021/11/18 01:29:30;;;;;;;13.93;10.10;;;;;22.20;101541.00;;;;2047258;28;20587;-67
2021/11/18 01:30:31;;;;;;;11.40;9.20;;;;;22.20;101544.00;;;;2050154;28;20323;-67
2021/11/18 01:31:31;;;;;;;10.87;9.60;;;;;22.20;101544.00;;;;2050224;28;20239;-67
2021/11/18 01:32:32;;;;;;;12.23;9.73;;;;;22.20;101540.00;;;;2050946;28;20230;-65
2021/11/18 01:33:33;;;;;;;11.67;9.80;;;;;22.10;101538.00;;;;2049748;28;20296;-66
2021/11/18 01:34:33;;;;;;;10.53;9.43;;;;;22.10;101544.00;;;;2036321;28;20311;-66
2021/11/18 01:35:34;;;;;;;10.60;9.03;;;;;22.10;101534.00;;;;2045269;28;20557;-65
2021/11/18 01:36:35;;;;;;;13.93;9.40;;;;;22.10;101531.00;;;;2051948;28;20212;-65
2021/11/18 01:37:35;;;;;;;11.52;8.65;;;;;22.10;101537.00;;;;2051841;28;20246;-66
2021/11/18 01:38:36;;;;;;;10.40;8.90;;;;;22.10;101536.00;;;;2051606;28;20619;-66
2021/11/18 01:39:36;;;;;;;10.33;9.13;;;;;22.10;101534.00;;;;2051780;28;20239;-66
2021/11/18 01:40:39;;;;;;;10.40;8.67;;;;;22.10;101530.00;;;;2051758;28;20216;-66
2021/11/18 01:41:39;;;;;;;10.88;9.25;;;;;22.10;101532.00;;;;2051514;28;20246;-66
2021/11/18 01:42:40;;;;;;;11.43;9.20;;;;;22.10;101537.00;;;;2051315;28;20212;-66
2021/11/18 01:43:42;;;;;;;11.73;8.93;;;;;22.10;101536.00;;;;2050930;28;20215;-66
2021/11/18 01:44:44;;;;;;;11.15;8.90;;;;;22.10;101533.00;;;;2050271;28;20227;-66
2021/11/18 01:45:45;;;;;;;12.18;9.27;;;;;22.10;101532.00;;;;2050811;28;20270;-65
2021/11/18 01:46:47;;;;;;;9.93;8.20;;;;;22.10;101528.00;;;;2050523;28;20274;-66
2021/11/18 01:47:47;;;;;;;10.18;8.60;;;;;22.10;101537.00;;;;2050400;28;20260;-66
2021/11/18 01:48:48;;;;;;;10.20;8.70;;;;;22.00;101541.00;;;;2054048;28;20223;-66
2021/11/18 01:49:48;;;;;;;12.60;9.30;;;;;22.00;101538.00;;;;2050616;28;20714;-65
2021/11/18 01:50:50;;;;;;;10.07;8.73;;;;;22.00;101534.00;;;;2049997;28;20262;-66
2021/11/18 01:51:52;;;;;;;12.40;8.70;;;;;22.10;101541.00;;;;2041988;29;20616;-66
2021/11/18 01:52:53;;;;;;;12.65;7.95;;;;;22.00;101541.00;;;;2049954;28;20240;-66
2021/11/18 01:53:53;;;;;;;10.13;8.70;;;;;22.00;101535.00;;;;2050906;28;20226;-66
2021/11/18 01:54:55;;;;;;;11.40;8.77;;;;;22.00;101530.00;;;;2050881;28;20259;-66
2021/11/18 01:55:55;;;;;;;9.82;8.23;;;;;22.00;101527.00;;;;2051010;28;20223;-65
2021/11/18 01:56:55;;;;;;;10.43;8.53;;;;;22.00;101539.00;;;;2051154;28;20216;-66
2021/11/18 01:57:56;;;;;;;10.90;8.37;;;;;22.00;101538.00;;;;2051088;28;20223;-66
2021/11/18 01:59:04;;;;;;;10.00;7.97;;;;;22.00;101530.00;;;;2051413;28;20329;-65
2021/11/18 02:00:07;;;;;;;9.48;8.45;;;;;22.00;101532.00;;;;2042477;28;20216;-65
2021/11/18 02:01:08;;;;;;;9.00;7.78;;;;;22.00;101533.00;;;;2043154;28;20216;-66
2021/11/18 02:02:10;;;;;;;9.60;8.03;;;;;22.00;101531.00;;;;2050996;28;20212;-66
2021/11/18 02:03:10;;;;;;;10.48;7.97;;;;;22.00;101530.00;;;;2048566;28;20468;-66
2021/11/18 02:04:13;;;;;;;8.47;7.40;;;;;22.00;101530.00;;;;2054236;28;20219;-65
2021/11/18 02:05:17;;;;;;;9.07;7.65;;;;;22.00;101534.00;;;;2051360;28;20247;-65
2021/11/18 02:06:29;;;;;;;9.93;8.63;;;;;22.00;101528.00;;;;2052547;28;20275;-66
2021/11/18 02:07:29;;;;;;;10.25;8.40;;;;;22.00;101538.00;;;;2050456;28;20796;-65
2021/11/18 02:08:30;;;;;;;9.50;8.30;;;;;22.00;101545.00;;;;2050498;28;20230;-65
2021/11/18 02:09:38;;;;;;;8.27;7.33;;;;;22.00;101545.00;;;;2050672;28;20208;-65
2021/11/18 02:10:41;;;;;;;9.18;8.10;;;;;21.90;101545.00;;;;2050655;28;20223;-66
2021/11/18 02:11:47;;;;;;;10.07;7.65;;;;;21.90;101559.00;;;;2050197;28;20650;-66
2021/11/18 02:12:47;;;;;;;9.00;8.05;;;;;22.00;101560.00;;;;2050245;28;20235;-66
2021/11/18 02:13:48;;;;;;;8.63;7.53;;;;;22.00;101556.00;;;;2051252;28;20231;-66
2021/11/18 02:14:49;;;;;;;9.60;7.88;;;;;22.00;101559.00;;;;2051095;28;20212;-65
2021/11/18 02:15:54;;;;;;;11.20;8.07;;;;;22.00;101558.00;;;;2051371;28;20623;-65
2021/11/18 02:16:56;;;;;;;9.52;7.40;;;;;21.90;101575.00;;;;2054784;28;20219;-66
2021/11/18 02:17:57;;;;;;;9.50;7.40;;;;;21.90;101554.00;;;;2050928;28;20641;-66
2021/11/18 02:18:58;;;;;;;9.32;7.20;;;;;21.90;101554.00;;;;2051126;28;20694;-66
2021/11/18 02:19:59;;;;;;;11.87;8.30;;;;;21.90;101561.00;;;;2051060;28;20239;-66
2021/11/18 02:21:10;;;;;;;11.27;8.20;;;;;21.90;101564.00;;;;2051057;28;20248;-65
2021/11/18 02:22:10;;;;;;;8.95;7.90;;;;;21.90;101571.00;;;;2050772;28;20689;-66
2021/11/18 02:23:16;;;;;;;10.30;8.23;;;;;21.90;101569.00;;;;2050986;28;20211;-66
2021/11/18 02:24:20;;;;;;;9.68;7.45;;;;;21.90;101558.00;;;;2050690;28;20220;-65
2021/11/18 02:25:30;;;;;;;8.82;7.93;;;;;21.90;101577.00;;;;2050309;28;20208;-66
2021/11/18 02:26:30;;;;;;;10.77;8.43;;;;;21.90;101576.00;;;;2044332;28;20240;-66
2021/11/18 02:27:31;;;;;;;11.93;8.00;;;;;21.90;101573.00;;;;2048493;28;20230;-66
2021/11/18 02:28:34;;;;;;;10.63;7.87;;;;;21.90;101572.00;;;;2051191;28;20211;-66
2021/11/18 02:29:34;;;;;;;9.02;7.45;;;;;21.90;101570.00;;;;2050461;28;20216;-65
2021/11/18 02:30:38;;;;;;;8.90;7.00;;;;;21.90;101569.00;;;;2050497;28;20227;-65
2021/11/18 02:31:53;;;;;;;8.68;7.30;;;;;21.90;101578.00;;;;2050444;28;20249;-66
2021/11/18 02:32:54;;;;;;;9.50;7.10;;;;;21.90;101579.00;;;;2050608;28;20211;-66
2021/11/18 02:33:55;;;;;;;9.10;7.20;;;;;21.90;101576.00;;;;2052040;28;20283;-66
2021/11/18 02:35:21;;;;;;;11.27;7.87;;;;;21.90;101570.00;;;;2054662;28;20204;-65
2021/11/18 02:36:21;;;;;;;9.70;7.03;;;;;21.80;101568.00;;;;2045686;28;20249;-65
2021/11/18 02:37:22;;;;;;;8.03;6.83;;;;;21.90;101567.00;;;;2050791;28;20754;-66
2021/11/18 02:38:22;;;;;;;7.23;6.43;;;;;21.90;101575.00;;;;2050246;28;20322;-65
2021/11/18 02:39:23;;;;;;;8.70;6.70;;;;;21.90;101568.00;;;;2049985;28;20295;-66
2021/11/18 02:40:23;;;;;;;10.00;7.60;;;;;21.80;101576.00;;;;2050432;28;20239;-66
2021/11/18 02:41:24;;;;;;;8.83;7.13;;;;;21.90;101572.00;;;;2048344;28;20216;-66
2021/11/18 02:42:25;;;;;;;8.63;7.07;;;;;21.80;101567.00;;;;2050941;28;20219;-66
2021/11/18 02:43:27;;;;;;;7.00;6.30;;;;;21.90;101579.00;;;;2050902;28;20710;-66
2021/11/18 02:44:29;;;;;;;8.70;7.75;;;;;21.80;101573.00;;;;2050402;28;20533;-66
2021/11/18 02:45:31;;;;;;;8.57;7.65;;;;;21.80;101572.00;;;;2049597;28;20659;-66
2021/11/18 02:46:33;;;;;;;8.98;7.07;;;;;21.80;101577.00;;;;2050641;28;20563;-65
2021/11/18 02:47:33;;;;;;;8.65;6.75;;;;;21.80;101575.00;;;;2050990;28;20235;-66
2021/11/18 02:48:33;;;;;;;10.07;8.10;;;;;21.80;101576.00;;;;2050989;28;20266;-66
2021/11/18 02:49:34;;;;;;;7.30;6.60;;;;;21.80;101580.00;;;;2050972;28;20242;-66
2021/11/18 02:50:37;;;;;;;8.17;7.30;;;;;21.80;101582.00;;;;2051014;28;20300;-65
2021/11/18 02:51:37;;;;;;;9.80;6.32;;;;;21.80;101573.00;;;;2051148;28;20227;-70
2021/11/18 02:52:38;;;;;;;8.17;6.93;;;;;21.80;101578.00;;;;2051019;28;20215;-70
2021/11/18 02:53:39;;;;;;;10.10;6.70;;;;;21.80;101573.00;;;;2052913;28;20212;-70
2021/11/18 02:54:39;;;;;;;9.13;6.80;;;;;21.80;101581.00;;;;2051398;28;20630;-70
2021/11/18 02:55:41;;;;;;;9.20;6.70;;;;;21.80;101578.00;;;;2051048;28;20215;-70
2021/11/18 02:56:42;;;;;;;9.07;7.38;;;;;21.80;101582.00;;;;2051607;28;20687;-70
2021/11/18 02:57:42;;;;;;;8.70;6.23;;;;;21.80;101578.00;;;;2052578;28;20246;-70
2021/11/18 02:58:42;;;;;;;7.40;6.30;;;;;21.80;101574.00;;;;2052258;28;20231;-70
2021/11/18 02:59:43;;;;;;;10.47;7.47;;;;;21.80;101573.00;;;;2051799;28;20605;-70
2021/11/18 03:01:09;;;;;;;9.17;6.90;;;;;21.80;101575.00;;;;2043716;28;20307;-70
2021/11/18 03:02:10;;;;;;;8.75;6.28;;;;;21.80;101573.00;;;;2043654;28;20298;-70
2021/11/18 03:03:10;;;;;;;8.10;6.20;;;;;21.70;101567.00;;;;2050288;28;20683;-70
2021/11/18 03:04:10;;;;;;;8.53;6.03;;;;;21.70;101575.00;;;;2056198;28;20215;-65
2021/11/18 03:05:11;;;;;;;8.93;6.60;;;;;21.70;101570.00;;;;2053335;28;20223;-65
2021/11/18 03:06:11;;;;;;;9.47;7.23;;;;;21.70;101580.00;;;;2053223;28;20238;-65
2021/11/18 03:07:12;;;;;;;7.93;7.00;;;;;21.70;101576.00;;;;2052076;28;20219;-66
2021/11/18 03:08:12;;;;;;;6.93;5.80;;;;;21.70;101579.00;;;;2052500;28;20215;-70
2021/11/18 03:09:12;;;;;;;7.67;6.43;;;;;21.70;101577.00;;;;2051808;28;20216;-70
2021/11/18 03:10:13;;;;;;;9.40;6.13;;;;;21.70;101561.00;;;;2052372;28;20216;-70
2021/11/18 03:11:14;;;;;;;7.67;6.70;;;;;21.70;101568.00;;;;2056109;28;20211;-70
2021/11/18 03:12:15;;;;;;;9.02;6.78;;;;;21.70;101571.00;;;;2052297;28;20273;-70
2021/11/18 03:13:16;;;;;;;7.57;6.33;;;;;21.70;101573.00;;;;2052392;28;20270;-70
2021/11/18 03:14:16;;;;;;;8.20;6.50;;;;;21.70;101557.00;;;;2051531;28;20227;-69
2021/11/18 03:15:17;;;;;;;7.47;6.27;;;;;21.70;101564.00;;;;2051062;28;20611;-70
2021/11/18 03:16:17;;;;;;;11.93;6.83;;;;;21.70;101563.00;;;;2051406;28;20668;-70
2021/11/18 03:17:18;;;;;;;9.27;7.17;;;;;21.70;101553.00;;;;2051607;28;20263;-70
2021/11/18 03:18:19;;;;;;;10.43;7.40;;;;;21.70;101566.00;;;;2052393;28;20212;-70
2021/11/18 03:19:19;;;;;;;9.52;6.82;;;;;21.70;101567.00;;;;2051651;28;20216;-70
2021/11/18 03:20:20;;;;;;;9.23;7.07;;;;;21.70;101556.00;;;;2052732;28;20216;-70
2021/11/18 03:21:27;;;;;;;8.85;6.35;;;;;21.70;101567.00;;;;2052583;28;20691;-70
2021/11/18 03:22:28;;;;;;;8.90;6.28;;;;;21.70;101556.00;;;;2048876;28;20631;-70
2021/11/18 03:23:28;;;;;;;9.07;7.10;;;;;21.70;101556.00;;;;2052145;28;20211;-70
2021/11/18 03:24:29;;;;;;;10.77;7.10;;;;;21.70;101564.00;;;;2052229;28;20736;-70
2021/11/18 03:25:30;;;;;;;8.90;6.13;;;;;21.70;101556.00;;;;2051903;28;20674;-70
2021/11/18 03:26:31;;;;;;;8.48;6.32;;;;;21.70;101562.00;;;;2051529;28;20220;-70
2021/11/18 03:27:31;;;;;;;8.13;6.23;;;;;21.70;101572.00;;;;2051633;28;20235;-70
2021/11/18 03:28:34;;;;;;;9.10;6.80;;;;;21.70;101561.00;;;;2052275;28;20218;-70
2021/11/18 03:29:35;;;;;;;8.45;6.45;;;;;21.70;101562.00;;;;2052136;28;20209;-70
2021/11/18 03:30:38;;;;;;;7.80;6.03;;;;;21.70;101566.00;;;;2052756;28;20211;-70
2021/11/18 03:31:39;;;;;;;9.80;6.30;;;;;21.70;101572.00;;;;2052753;28;20467;-70
2021/11/18 03:32:39;;;;;;;9.80;7.10;;;;;21.70;101583.00;;;;2052702;28;20211;-70
2021/11/18 03:33:45;;;;;;;8.67;6.30;;;;;21.70;101574.00;;;;2052685;28;20211;-66
2021/11/18 03:34:45;;;;;;;7.18;5.70;;;;;21.70;101572.00;;;;2052335;28;20588;-66
2021/11/18 03:35:46;;;;;;;7.80;6.00;;;;;21.70;101580.00;;;;2055293;28;20238;-66
2021/11/18 03:36:46;;;;;;;8.30;6.63;;;;;21.70;101577.00;;;;2052368;28;20299;-67
2021/11/18 03:37:47;;;;;;;8.03;6.20;;;;;21.60;101577.00;;;;2052773;28;20270;-66
2021/11/18 03:38:47;;;;;;;10.13;6.47;;;;;21.70;101573.00;;;;2052592;28;20228;-66
2021/11/18 03:39:48;;;;;;;10.17;6.90;;;;;21.60;101567.00;;;;2052578;28;20234;-67
2021/11/18 03:40:50;;;;;;;8.90;6.20;;;;;21.60;101573.00;;;;2052096;28;20718;-66
2021/11/18 03:41:53;;;;;;;9.02;6.93;;;;;21.60;101570.00;;;;2051491;28;20332;-66
2021/11/18 03:42:53;;;;;;;8.60;6.30;;;;;21.60;101577.00;;;;2051192;28;20266;-66
2021/11/18 03:43:56;;;;;;;9.03;6.77;;;;;21.60;101569.00;;;;2051935;28;20220;-65
2021/11/18 03:44:56;;;;;;;10.52;6.40;;;;;21.60;101573.00;;;;2051325;28;20224;-66
2021/11/18 03:45:57;;;;;;;9.20;6.70;;;;;21.60;101557.00;;;;2052383;28;20225;-67
2021/11/18 03:47:00;;;;;;;9.33;6.67;;;;;21.60;101557.00;;;;2052510;28;20244;-65
2021/11/18 03:48:00;;;;;;;7.72;6.03;;;;;21.60;101556.00;;;;2052505;28;20216;-66
2021/11/18 03:49:00;;;;;;;9.33;6.70;;;;;21.60;101553.00;;;;2052469;28;20659;-65
2021/11/18 03:50:01;;;;;;;9.00;7.00;;;;;21.60;101561.00;;;;2052618;28;20219;-66
2021/11/18 03:51:02;;;;;;;6.70;5.77;;;;;21.60;101554.00;;;;2052473;28;20242;-66
2021/11/18 03:52:04;;;;;;;9.10;6.60;;;;;21.60;101565.00;;;;2051487;28;20227;-66
2021/11/18 03:53:04;;;;;;;9.80;6.55;;;;;21.60;101567.00;;;;2043793;29;20448;-66
2021/11/18 03:54:06;;;;;;;9.40;6.50;;;;;21.60;101562.00;;;;2051389;28;20322;-66
2021/11/18 03:55:07;;;;;;;7.20;5.95;;;;;21.60;101558.00;;;;2051532;28;20212;-66
2021/11/18 03:56:20;;;;;;;7.93;6.07;;;;;21.60;101577.00;;;;2051152;28;20224;-66
2021/11/18 03:57:21;;;;;;;8.25;6.18;;;;;21.60;101576.00;;;;2053141;28;20216;-67
2021/11/18 03:58:21;;;;;;;9.70;6.30;;;;;21.60;101581.00;;;;2052508;28;20287;-66
2021/11/18 03:59:24;;;;;;;10.27;6.80;;;;;21.60;101572.00;;;;2052158;28;20211;-66
2021/11/18 04:00:27;;;;;;;8.38;6.05;;;;;21.60;101585.00;;;;2052581;28;20216;-66
2021/11/18 04:01:27;;;;;;;12.05;7.10;;;;;21.60;101581.00;;;;2055180;28;20224;-66
2021/11/18 04:02:27;;;;;;;9.77;6.80;;;;;21.60;101585.00;;;;2051964;28;20286;-66
2021/11/18 04:03:28;;;;;;;9.70;6.33;;;;;21.60;101595.00;;;;2050488;28;20215;-66
2021/11/18 04:04:35;;;;;;;8.73;7.00;;;;;21.60;101600.00;;;;2053486;28;20220;-66
2021/11/18 04:05:35;;;;;;;10.65;6.38;;;;;21.60;101600.00;;;;2055258;28;20616;-66
2021/11/18 04:06:37;;;;;;;9.27;6.50;;;;;21.60;101600.00;;;;2052362;28;20217;-66
2021/11/18 04:07:39;;;;;;;9.27;6.22;;;;;21.60;101601.00;;;;2052267;28;20225;-66
2021/11/18 04:08:39;;;;;;;8.63;6.45;;;;;21.50;101599.00;;;;2051242;28;20231;-66
2021/11/18 04:09:40;;;;;;;9.10;6.67;;;;;21.60;101604.00;;;;2052062;28;20713;-66
2021/11/18 04:10:41;;;;;;;9.57;6.93;;;;;21.60;101603.00;;;;2052345;28;20681;-66
2021/11/18 04:11:43;;;;;;;8.13;6.67;;;;;21.50;101603.00;;;;2051693;28;20648;-66
2021/11/18 04:12:43;;;;;;;8.05;6.65;;;;;21.50;101602.00;;;;2042943;29;20216;-66
2021/11/18 04:13:43;;;;;;;10.87;6.57;;;;;21.60;101604.00;;;;2035139;29;20722;-66
2021/11/18 04:14:44;;;;;;;8.80;6.27;;;;;21.60;101609.00;;;;2051219;28;20222;-66
2021/11/18 04:15:49;;;;;;;10.80;6.80;;;;;21.50;101614.00;;;;2051500;28;20307;-66
2021/11/18 04:16:49;;;;;;;8.40;6.63;;;;;21.50;101604.00;;;;2051018;28;20319;-66
2021/11/18 04:17:50;;;;;;;8.87;6.23;;;;;21.50;101606.00;;;;2043791;29;20252;-66
2021/11/18 04:18:50;;;;;;;9.63;6.80;;;;;21.50;101618.00;;;;2051703;28;20227;-66
2021/11/18 04:19:51;;;;;;;9.23;6.37;;;;;21.50;101614.00;;;;2052264;28;20591;-66
2021/11/18 04:20:51;;;;;;;9.87;6.90;;;;;21.50;101606.00;;;;2052379;28;20251;-66
2021/11/18 04:21:52;;;;;;;10.80;7.10;;;;;21.50;101612.00;;;;2052226;28;20225;-66
2021/11/18 04:22:53;;;;;;;9.33;6.30;;;;;21.50;101605.00;;;;2052304;28;20535;-66
2021/11/18 04:23:53;;;;;;;10.10;6.73;;;;;21.50;101615.00;;;;2051931;28;20280;-66
2021/11/18 04:24:53;;;;;;;7.50;5.87;;;;;21.50;101621.00;;;;2051274;28;20223;-66
2021/11/18 04:25:54;;;;;;;8.50;6.23;;;;;21.50;101615.00;;;;2051372;28;20215;-66
2021/11/18 04:26:54;;;;;;;9.23;6.33;;;;;21.50;101618.00;;;;2050867;28;20219;-66
2021/11/18 04:27:55;;;;;;;8.73;6.53;;;;;21.50;101616.00;;;;2051026;28;20263;-66
2021/11/18 04:28:56;;;;;;;9.57;6.85;;;;;21.50;101621.00;;;;2051672;28;20227;-66
2021/11/18 04:29:56;;;;;;;10.30;7.10;;;;;21.50;101625.00;;;;2050759;28;20212;-66
2021/11/18 04:31:00;;;;;;;10.23;6.80;;;;;21.50;101628.00;;;;2051054;28;20216;-66
2021/11/18 04:32:06;;;;;;;9.10;6.32;;;;;21.50;101623.00;;;;2051618;28;20209;-66
2021/11/18 04:33:06;;;;;;;10.32;6.70;;;;;21.50;101619.00;;;;2049186;28;20243;-66
2021/11/18 04:34:08;;;;;;;10.90;6.33;;;;;21.50;101615.00;;;;2054518;28;20290;-66
2021/11/18 04:35:08;;;;;;;8.60;6.57;;;;;21.50;101619.00;;;;2052466;28;20223;-66
2021/11/18 04:36:10;;;;;;;10.10;6.87;;;;;21.50;101613.00;;;;2051871;28;20287;-66
2021/11/18 04:37:10;;;;;;;8.82;6.80;;;;;21.50;101612.00;;;;2051002;28;20219;-66
2021/11/18 04:38:11;;;;;;;9.03;6.23;;;;;21.50;101603.00;;;;2050991;28;20274;-66
2021/11/18 04:39:11;;;;;;;7.77;6.40;;;;;21.50;101618.00;;;;2050604;28;20854;-66
2021/11/18 04:40:12;;;;;;;11.07;6.73;;;;;21.50;101608.00;;;;2050836;28;20220;-66
2021/11/18 04:41:12;;;;;;;11.93;6.70;;;;;21.50;101607.00;;;;2051252;28;20232;-66
2021/11/18 04:42:13;;;;;;;13.33;7.43;;;;;21.50;101600.00;;;;2050731;28;20205;-66
2021/11/18 04:43:14;;;;;;;12.57;6.47;;;;;21.50;101602.00;;;;2050647;28;20255;-67
2021/11/18 04:44:14;;;;;;;9.70;6.40;;;;;21.50;101599.00;;;;2053730;28;20453;-66
2021/11/18 04:45:17;;;;;;;9.03;6.73;;;;;21.40;101600.00;;;;2051197;28;20686;-66
2021/11/18 04:46:17;;;;;;;9.57;6.38;;;;;21.40;101597.00;;;;2050819;28;20219;-66
2021/11/18 04:47:18;;;;;;;9.23;6.27;;;;;21.40;101600.00;;;;2050948;28;20220;-66
2021/11/18 04:48:18;;;;;;;10.90;6.60;;;;;21.40;101602.00;;;;2051026;28;20258;-66
2021/11/18 04:49:19;;;;;;;9.20;6.43;;;;;21.40;101607.00;;;;2043491;29;20273;-66
2021/11/18 04:50:20;;;;;;;9.53;5.97;;;;;21.40;101600.00;;;;2051559;28;20231;-66
2021/11/18 04:51:22;;;;;;;13.07;6.60;;;;;21.40;101603.00;;;;2051958;28;20216;-66
2021/11/18 04:52:22;;;;;;;9.73;6.80;;;;;21.40;101601.00;;;;2052194;28;20212;-66
2021/11/18 04:53:27;;;;;;;8.13;6.40;;;;;21.40;101595.00;;;;2052145;28;20212;-66
2021/11/18 04:54:27;;;;;;;10.32;6.60;;;;;21.40;101597.00;;;;2055134;28;20238;-66
2021/11/18 04:55:28;;;;;;;9.90;6.37;;;;;21.40;101590.00;;;;2051211;28;20224;-66
2021/11/18 04:56:28;;;;;;;9.10;6.73;;;;;21.40;101584.00;;;;2051724;28;20220;-66
2021/11/18 04:57:28;;;;;;;10.33;7.10;;;;;21.40;101581.00;;;;2051874;28;20220;-66
2021/11/18 04:58:29;;;;;;;9.67;6.50;;;;;21.40;101588.00;;;;2052017;28;20218;-66
2021/11/18 04:59:30;;;;;;;11.23;6.63;;;;;21.40;101593.00;;;;2051865;28;20243;-66
2021/11/18 05:00:33;;;;;;;10.95;6.55;;;;;21.40;101594.00;;;;2051371;28;20707;-66
2021/11/18 05:01:34;;;;;;;9.75;6.80;;;;;21.40;101594.00;;;;2051564;28;20223;-66